Terminal Aerodrome Forecast
Issued by NWS Grand Rapids, MI

Home | Current Version | Previous Version | Text Only | Print | Product List | Glossary On
Versions: 1 2 3 4 5 6 7 8 9 10 11 12 13 14
000
FTUS43 KGRR 261700
TAFGRR
TAF
KGRR 261740Z 2618/2718 24010KT P6SM BKN035
     FM270900 VRB03KT 4SM BR SCT015
     FM271500 22009KT P6SM VCTS BKN025CB=

USA.gov is the U.S. government's official web portal to all federal, state and local government web resources and services.